Time;durP1;ratioP1;P1;durP2;ratioP2;P2;SDS_P1;SDS_P2;PMS_P1;PMS_P2;Temp;Humidity;BMP_temperature;BMP_pressure;BME280_temperature;BME280_humidity;BME280_pressure;Samples;Min_cycle;Max_cycle;Signal;HPM_P1;HPM_P2
2021/04/14 00:00:36;;;;;;;7.00;1.93;;;2.80;99.90;;;;;;5018460;28;20747;-54
2021/04/14 00:03:06;;;;;;;8.50;2.30;;;2.80;99.90;;;;;;5022299;28;20208;-54
2021/04/14 00:05:35;;;;;;;14.77;2.20;;;2.80;99.90;;;;;;5005245;28;20224;-54
2021/04/14 00:08:02;;;;;;;8.30;1.80;;;2.80;99.90;;;;;;5022677;28;20287;-53
2021/04/14 00:10:31;;;;;;;7.03;2.03;;;2.70;99.90;;;;;;5017530;28;20460;-55
2021/04/14 00:12:58;;;;;;;13.03;2.37;;;2.70;99.90;;;;;;5022192;28;20203;-52
2021/04/14 00:15:29;;;;;;;11.90;2.10;;;2.70;99.90;;;;;;5018019;28;20564;-53
2021/04/14 00:17:55;;;;;;;8.33;2.47;;;2.70;99.90;;;;;;5022219;28;20603;-53
2021/04/14 00:20:21;;;;;;;5.93;2.30;;;2.70;99.90;;;;;;5008620;28;20278;-51
2021/04/14 00:22:47;;;;;;;13.87;2.33;;;2.70;99.90;;;;;;5025075;28;20316;-54
2021/04/14 00:25:20;;;;;;;8.70;1.80;;;2.70;99.90;;;;;;5020230;28;20223;-50
2021/04/14 00:27:47;;;;;;;4.67;1.70;;;2.70;99.90;;;;;;5020459;28;20616;-53
2021/04/14 00:30:14;;;;;;;7.70;2.10;;;2.60;99.90;;;;;;5019638;28;20235;-52
2021/04/14 00:32:40;;;;;;;4.13;1.93;;;2.70;99.90;;;;;;5001984;28;20406;-56
2021/04/14 00:35:07;;;;;;;8.73;2.60;;;2.60;99.90;;;;;;5022217;28;20197;-50
2021/04/14 00:37:34;;;;;;;11.63;2.53;;;2.70;99.90;;;;;;5008691;28;20219;-55
2021/04/14 00:40:00;;;;;;;11.17;2.33;;;2.70;99.90;;;;;;5021353;28;20223;-53
2021/04/14 00:42:27;;;;;;;11.83;2.40;;;2.70;99.90;;;;;;5017509;28;20457;-55
2021/04/14 00:44:53;;;;;;;7.73;2.70;;;2.70;99.90;;;;;;5021402;28;20305;-54
2021/04/14 00:47:19;;;;;;;13.90;2.93;;;2.70;99.90;;;;;;5019017;28;20192;-54
2021/04/14 00:49:46;;;;;;;5.10;1.90;;;2.70;99.90;;;;;;5020676;28;20215;-54
2021/04/14 00:52:13;;;;;;;5.50;2.50;;;2.60;99.90;;;;;;5007479;28;20214;-57
2021/04/14 00:54:39;;;;;;;7.03;2.30;;;2.60;99.90;;;;;;5006226;28;20587;-55
2021/04/14 00:57:06;;;;;;;5.73;2.90;;;2.60;99.90;;;;;;5021738;28;20672;-53
2021/04/14 00:59:33;;;;;;;7.03;2.37;;;2.60;99.90;;;;;;5017410;28;20220;-56
2021/04/14 01:01:59;;;;;;;10.93;2.50;;;2.60;99.90;;;;;;5021956;28;20208;-54
2021/04/14 01:04:25;;;;;;;5.43;2.00;;;2.60;99.90;;;;;;5020987;28;20334;-53
2021/04/14 01:06:51;;;;;;;9.97;3.10;;;2.50;99.90;;;;;;5008811;28;20226;-54
2021/04/14 01:09:18;;;;;;;8.17;2.27;;;2.50;99.90;;;;;;5020813;28;20227;-57
2021/04/14 01:11:44;;;;;;;4.70;2.10;;;2.50;99.90;;;;;;5012189;28;20233;-55
2021/04/14 01:14:10;;;;;;;4.10;2.20;;;2.50;99.90;;;;;;5016404;28;20322;-55
2021/04/14 01:16:37;;;;;;;6.60;2.30;;;2.50;99.90;;;;;;5020341;28;20207;-56
2021/04/14 01:19:03;;;;;;;8.00;3.10;;;2.40;99.90;;;;;;5017180;28;20207;-54
2021/04/14 01:21:36;;;;;;;6.43;2.80;;;2.40;99.90;;;;;;5021354;28;20569;-54
2021/04/14 01:24:04;;;;;;;8.77;2.37;;;2.40;99.90;;;;;;5006988;28;20221;-57
2021/04/14 01:26:30;;;;;;;6.77;3.03;;;2.40;99.90;;;;;;5020857;28;20589;-52
2021/04/14 01:28:56;;;;;;;7.67;2.33;;;2.30;99.90;;;;;;5018658;28;20226;-55
2021/04/14 01:31:32;;;;;;;9.83;3.07;;;2.30;99.90;;;;;;5019967;28;20432;-52
2021/04/14 01:33:59;;;;;;;14.80;2.90;;;2.30;99.90;;;;;;5018457;28;20195;-55
2021/04/14 01:36:25;;;;;;;6.57;2.57;;;2.30;99.90;;;;;;5023484;28;20595;-52
2021/04/14 01:38:52;;;;;;;9.53;2.83;;;2.20;99.90;;;;;;5012305;28;20213;-54
2021/04/14 01:41:18;;;;;;;13.53;3.13;;;2.20;99.90;;;;;;5024189;28;20281;-54
2021/04/14 01:43:44;;;;;;;6.17;2.40;;;2.20;99.90;;;;;;5024879;28;20219;-49
2021/04/14 01:46:10;;;;;;;9.47;2.90;;;2.20;99.90;;;;;;5021034;28;20214;-54
2021/04/14 01:48:36;;;;;;;11.27;2.53;;;2.10;99.90;;;;;;5024996;28;20233;-53
2021/04/14 01:51:03;;;;;;;10.03;3.00;;;2.10;99.90;;;;;;5021054;28;20214;-54
2021/04/14 01:53:29;;;;;;;9.97;2.47;;;2.10;99.90;;;;;;5012089;28;20217;-51
2021/04/14 01:55:56;;;;;;;8.50;3.03;;;2.10;99.90;;;;;;5026938;28;20198;-55
2021/04/14 01:58:25;;;;;;;12.47;2.60;;;2.00;99.90;;;;;;5022996;28;20360;-50
2021/04/14 02:00:55;;;;;;;6.13;2.60;;;2.00;99.90;;;;;;5023226;28;20229;-54
2021/04/14 02:03:22;;;;;;;6.83;2.80;;;2.00;99.90;;;;;;5022685;28;20354;-52
2021/04/14 02:05:48;;;;;;;7.57;3.03;;;2.00;99.90;;;;;;5028936;28;20226;-54
2021/04/14 02:08:14;;;;;;;8.43;3.07;;;1.90;99.90;;;;;;5010371;28;20276;-55
2021/04/14 02:10:40;;;;;;;10.63;2.93;;;1.90;99.90;;;;;;5027089;28;20231;-55
2021/04/14 02:13:13;;;;;;;7.63;3.20;;;1.90;99.90;;;;;;5022992;28;20310;-56
2021/04/14 02:15:39;;;;;;;17.53;3.27;;;1.90;99.90;;;;;;5024436;28;20199;-55
2021/04/14 02:18:06;;;;;;;9.17;2.70;;;1.90;99.90;;;;;;5020117;28;20202;-57
2021/04/14 02:20:33;;;;;;;11.73;3.43;;;1.90;99.90;;;;;;5023963;28;20230;-52
2021/04/14 02:23:10;;;;;;;10.47;3.13;;;1.80;99.90;;;;;;5011456;28;20265;-56
2021/04/14 02:25:36;;;;;;;9.57;3.17;;;1.80;99.90;;;;;;5029808;28;20220;-53
2021/04/14 02:28:02;;;;;;;8.67;2.80;;;1.80;99.90;;;;;;5021939;28;20661;-55
2021/04/14 02:30:29;;;;;;;3.40;2.40;;;1.80;99.90;;;;;;5023561;28;20232;-52
2021/04/14 02:32:56;;;;;;;10.40;3.17;;;1.80;99.90;;;;;;5022112;28;20206;-52
2021/04/14 02:35:25;;;;;;;11.67;3.83;;;1.80;99.90;;;;;;5021512;28;20203;-56
2021/04/14 02:37:52;;;;;;;9.23;3.40;;;1.80;99.90;;;;;;5021126;28;20692;-53
2021/04/14 02:40:19;;;;;;;9.97;3.60;;;1.80;99.90;;;;;;5011035;28;20528;-55
2021/04/14 02:42:45;;;;;;;14.03;3.80;;;1.70;99.90;;;;;;5020018;28;20217;-51
2021/04/14 02:45:14;;;;;;;10.10;3.20;;;1.70;99.90;;;;;;5019225;28;20466;-57
2021/04/14 02:47:41;;;;;;;8.97;3.27;;;1.70;99.90;;;;;;5023785;28;20193;-56
2021/04/14 02:50:09;;;;;;;12.00;3.40;;;1.70;99.90;;;;;;5018874;28;20280;-51
2021/04/14 02:52:35;;;;;;;6.40;3.10;;;1.70;99.90;;;;;;5022796;28;20202;-55
2021/04/14 02:55:02;;;;;;;12.23;3.53;;;1.70;99.90;;;;;;5009572;28;20226;-50
2021/04/14 02:57:28;;;;;;;5.47;3.00;;;1.70;99.90;;;;;;5020935;28;20206;-52
2021/04/14 02:59:54;;;;;;;14.27;3.23;;;1.70;99.90;;;;;;5021136;28;20343;-53
2021/04/14 03:02:20;;;;;;;10.37;3.30;;;1.60;99.90;;;;;;5020931;28;20508;-52
2021/04/14 03:04:47;;;;;;;9.60;3.17;;;1.60;99.90;;;;;;5025711;28;20703;-51
2021/04/14 03:07:13;;;;;;;8.73;3.17;;;1.60;99.90;;;;;;5021980;28;20257;-55
2021/04/14 03:09:40;;;;;;;14.57;3.47;;;1.60;99.90;;;;;;5022996;28;20223;-56
2021/04/14 03:12:08;;;;;;;13.07;2.80;;;1.60;99.90;;;;;;5009092;28;20763;-56
2021/04/14 03:14:34;;;;;;;7.80;2.80;;;1.60;99.90;;;;;;5022972;28;20199;-56
2021/04/14 03:17:00;;;;;;;8.00;3.03;;;1.50;99.90;;;;;;5012906;28;20699;-54
2021/04/14 03:19:26;;;;;;;3.47;2.50;;;1.50;99.90;;;;;;5021127;28;20269;-49
2021/04/14 03:21:54;;;;;;;12.27;3.77;;;1.50;99.90;;;;;;5020684;28;20207;-53
2021/04/14 03:24:20;;;;;;;10.83;3.47;;;1.50;99.90;;;;;;5020157;28;20378;-53
2021/04/14 03:26:46;;;;;;;7.60;3.47;;;1.60;99.90;;;;;;5010071;28;20234;-52
2021/04/14 03:29:12;;;;;;;6.97;2.73;;;1.60;99.90;;;;;;5023223;28;20261;-56
2021/04/14 03:31:38;;;;;;;9.83;3.63;;;1.60;99.90;;;;;;5022746;28;20329;-54
2021/04/14 03:34:05;;;;;;;12.23;3.67;;;1.60;99.90;;;;;;5021094;28;20196;-53
2021/04/14 03:36:31;;;;;;;6.73;3.00;;;1.60;99.90;;;;;;5022555;28;20198;-56
2021/04/14 03:38:58;;;;;;;8.17;3.00;;;1.60;99.90;;;;;;5019690;28;20608;-54
2021/04/14 03:41:26;;;;;;;8.23;2.90;;;1.50;99.90;;;;;;5008931;28;20305;-54
2021/04/14 03:43:54;;;;;;;6.97;2.73;;;1.50;99.90;;;;;;5023737;28;20208;-54
2021/04/14 03:46:21;;;;;;;14.47;3.63;;;1.50;99.90;;;;;;5020388;28;20474;-53
2021/04/14 03:48:48;;;;;;;9.93;3.10;;;1.50;99.90;;;;;;5021728;28;20207;-53
2021/04/14 03:51:15;;;;;;;9.03;3.70;;;1.50;99.90;;;;;;5019165;28;20210;-51
2021/04/14 03:53:42;;;;;;;9.63;3.60;;;1.50;99.90;;;;;;5022295;28;20294;-54
2021/04/14 03:56:11;;;;;;;13.10;3.57;;;1.50;99.90;;;;;;5017998;28;20225;-53
2021/04/14 03:58:39;;;;;;;8.43;3.33;;;1.50;99.90;;;;;;5012014;28;20222;-52
2021/04/14 04:01:09;;;;;;;10.07;4.03;;;1.50;99.90;;;;;;5010266;28;20582;-51
2021/04/14 04:03:36;;;;;;;11.00;3.93;;;1.50;99.90;;;;;;5018176;28;20541;-53
2021/04/14 04:06:03;;;;;;;5.50;3.87;;;1.50;99.90;;;;;;5021069;28;20224;-49
2021/04/14 04:08:29;;;;;;;7.30;3.33;;;1.40;99.90;;;;;;5018400;28;20215;-52
2021/04/14 04:10:55;;;;;;;10.60;3.77;;;1.40;99.90;;;;;;5022143;28;20230;-53
2021/04/14 04:13:22;;;;;;;10.93;4.27;;;1.40;99.90;;;;;;5007243;28;20699;-48
2021/04/14 04:15:48;;;;;;;10.40;4.10;;;1.40;99.90;;;;;;5021766;28;20285;-51
2021/04/14 04:18:15;;;;;;;12.43;4.30;;;1.40;99.90;;;;;;5021457;28;20211;-53
2021/04/14 04:20:41;;;;;;;11.13;4.00;;;1.40;99.90;;;;;;5014063;28;20802;-51
2021/04/14 04:23:09;;;;;;;11.73;4.23;;;1.40;99.90;;;;;;5022157;28;20198;-54
2021/04/14 04:25:36;;;;;;;13.43;4.37;;;1.30;99.90;;;;;;5018048;28;20231;-51
2021/04/14 04:28:03;;;;;;;9.20;3.90;;;1.30;99.90;;;;;;5022223;28;20217;-50
2021/04/14 04:30:31;;;;;;;10.93;4.73;;;1.40;99.90;;;;;;5006139;28;20247;-54
2021/04/14 04:32:57;;;;;;;12.30;4.33;;;1.40;99.90;;;;;;5030684;28;20214;-50
2021/04/14 04:35:26;;;;;;;4.77;3.90;;;1.40;99.90;;;;;;5026487;28;20197;-50
2021/04/14 04:37:52;;;;;;;8.30;3.93;;;1.40;99.90;;;;;;5016591;28;20218;-54
2021/04/14 04:40:20;;;;;;;10.97;3.97;;;1.40;99.90;;;;;;5019673;28;20225;-52
2021/04/14 04:42:48;;;;;;;10.27;4.50;;;1.40;99.90;;;;;;5020503;28;20515;-52
2021/04/14 04:45:16;;;;;;;12.67;5.30;;;1.40;99.90;;;;;;5008275;28;20225;-55
2021/04/14 04:47:43;;;;;;;8.73;3.93;;;1.40;99.90;;;;;;5021367;28;20198;-51
2021/04/14 04:50:10;;;;;;;10.17;4.47;;;1.40;99.90;;;;;;5021758;28;20380;-52
2021/04/14 04:52:36;;;;;;;8.27;3.63;;;1.40;99.90;;;;;;5012818;28;20204;-53
2021/04/14 04:55:03;;;;;;;6.90;3.70;;;1.40;99.90;;;;;;5021718;28;20202;-53
2021/04/14 04:57:29;;;;;;;9.17;3.83;;;1.40;99.90;;;;;;5017534;28;20252;-52
2021/04/14 04:59:55;;;;;;;10.83;3.90;;;1.50;99.90;;;;;;5010863;28;20289;-53
2021/04/14 05:02:22;;;;;;;11.50;4.23;;;1.50;99.90;;;;;;5019029;28;20257;-50
2021/04/14 05:04:49;;;;;;;7.47;4.00;;;1.50;99.90;;;;;;5021839;28;20442;-55
2021/04/14 05:07:15;;;;;;;10.77;4.40;;;1.50;99.90;;;;;;5020715;28;20210;-53
2021/04/14 05:09:41;;;;;;;5.27;3.17;;;1.60;99.90;;;;;;5013728;28;20417;-54
2021/04/14 05:12:08;;;;;;;5.53;3.80;;;1.60;99.90;;;;;;5022129;28;20556;-53
2021/04/14 05:14:34;;;;;;;5.87;3.70;;;1.70;99.90;;;;;;5018191;28;20311;-50
2021/04/14 05:17:00;;;;;;;9.87;3.57;;;1.70;99.90;;;;;;5022627;28;20259;-52
2021/04/14 05:19:26;;;;;;;6.97;3.23;;;1.80;99.90;;;;;;5021416;28;20238;-52
2021/04/14 05:21:53;;;;;;;9.37;3.60;;;1.90;99.90;;;;;;5024896;28;20198;-55
2021/04/14 05:24:19;;;;;;;6.77;3.40;;;1.90;99.90;;;;;;5000726;28;20207;-53
2021/04/14 05:26:45;;;;;;;10.53;3.37;;;2.00;99.90;;;;;;5023846;28;20270;-52
2021/04/14 05:29:11;;;;;;;11.50;2.47;;;2.00;99.90;;;;;;5024608;28;20224;-56
2021/04/14 05:31:40;;;;;;;8.47;2.60;;;2.10;99.90;;;;;;5010116;28;20382;-52
2021/04/14 05:34:06;;;;;;;7.17;2.40;;;2.20;99.90;;;;;;5026553;28;20203;-50
2021/04/14 05:36:33;;;;;;;3.93;2.40;;;2.30;99.90;;;;;;5024858;28;20301;-54
2021/04/14 05:39:01;;;;;;;8.23;3.23;;;2.40;99.90;;;;;;5024850;28;20204;-53
2021/04/14 05:41:27;;;;;;;7.43;2.87;;;2.50;99.90;;;;;;5016188;28;20207;-55
2021/04/14 05:43:53;;;;;;;10.10;3.07;;;2.50;99.90;;;;;;5025226;28;20206;-52
2021/04/14 05:46:21;;;;;;;9.13;2.63;;;2.50;99.90;;;;;;5015484;28;20235;-54
2021/04/14 05:48:49;;;;;;;4.70;2.30;;;2.50;99.90;;;;;;5027011;28;20227;-52
2021/04/14 05:51:20;;;;;;;4.33;3.00;;;2.60;99.90;;;;;;5026342;28;20207;-51
2021/04/14 05:53:49;;;;;;;9.10;2.70;;;2.60;99.90;;;;;;5023382;28;20771;-50
2021/04/14 05:56:17;;;;;;;4.27;2.77;;;2.70;99.90;;;;;;5018492;28;20203;-50
2021/04/14 05:58:43;;;;;;;5.37;2.33;;;2.70;99.90;;;;;;5022484;28;20215;-51
2021/04/14 06:01:11;;;;;;;8.57;2.67;;;2.80;99.90;;;;;;5024917;28;20315;-54
2021/04/14 06:03:37;;;;;;;8.33;2.73;;;2.90;99.90;;;;;;5009480;28;20426;-51
2021/04/14 06:06:04;;;;;;;5.70;2.63;;;2.90;99.90;;;;;;5024639;28;20216;-54
2021/04/14 06:08:31;;;;;;;4.23;2.50;;;3.00;99.90;;;;;;5020277;28;20695;-52
2021/04/14 06:10:58;;;;;;;7.03;2.87;;;3.10;99.90;;;;;;5024545;28;20608;-51
2021/04/14 06:13:25;;;;;;;5.07;2.67;;;3.10;99.90;;;;;;5017100;28;20214;-51
2021/04/14 06:15:52;;;;;;;7.87;2.13;;;3.20;99.90;;;;;;5024015;28;20203;-51
2021/04/14 06:18:18;;;;;;;4.07;2.50;;;3.20;99.90;;;;;;5016483;28;20469;-56
2021/04/14 06:20:44;;;;;;;4.63;2.10;;;3.20;99.90;;;;;;5006726;28;20250;-53
2021/04/14 06:23:12;;;;;;;8.23;2.20;;;3.20;99.90;;;;;;5022236;28;20431;-53
2021/04/14 06:25:41;;;;;;;4.23;1.87;;;3.20;99.90;;;;;;5024215;28;20270;-55
2021/04/14 06:28:08;;;;;;;5.30;2.23;;;3.30;99.90;;;;;;5010194;28;20200;-54
2021/04/14 06:30:37;;;;;;;3.83;1.97;;;3.40;99.90;;;;;;5023986;28;20330;-51
2021/04/14 06:33:06;;;;;;;3.23;2.00;;;3.50;99.90;;;;;;5019809;28;20699;-53
2021/04/14 06:35:32;;;;;;;6.27;2.30;;;3.60;99.90;;;;;;5008438;28;20204;-55
2021/04/14 06:38:00;;;;;;;3.33;2.13;;;3.70;99.90;;;;;;5020437;28;20199;-50
2021/04/14 06:40:46;;;;;;;7.67;2.17;;;3.90;99.90;;;;;;5019319;28;20240;-54
2021/04/14 06:43:28;;;;;;;5.27;2.30;;;4.00;99.90;;;;;;5012710;28;20509;-55
2021/04/14 06:46:02;;;;;;;3.63;1.60;;;4.00;99.90;;;;;;5019212;28;20215;-54
2021/04/14 06:48:35;;;;;;;4.90;1.40;;;4.00;99.90;;;;;;5022192;28;20199;-50
2021/04/14 06:51:05;;;;;;;8.33;1.80;;;4.10;99.90;;;;;;5009825;28;20759;-52
2021/04/14 06:53:41;;;;;;;6.13;1.57;;;4.10;99.90;;;;;;5026361;28;20204;-53
2021/04/14 06:56:14;;;;;;;2.93;1.67;;;4.20;99.90;;;;;;5013359;28;20203;-51
2021/04/14 06:58:44;;;;;;;3.87;1.37;;;4.20;99.90;;;;;;5009331;28;20208;-53
2021/04/14 07:01:15;;;;;;;3.17;1.40;;;4.30;99.90;;;;;;5019785;28;20216;-49
2021/04/14 07:03:51;;;;;;;6.83;1.87;;;4.40;99.90;;;;;;5017421;28;20210;-51
2021/04/14 07:06:20;;;;;;;7.27;1.87;;;4.50;99.90;;;;;;5011955;28;20789;-54
2021/04/14 07:08:58;;;;;;;5.93;1.57;;;4.50;99.90;;;;;;5013885;28;20394;-52
2021/04/14 07:11:28;;;;;;;3.53;1.03;;;4.60;99.90;;;;;;5017441;28;20246;-54
2021/04/14 07:13:55;;;;;;;5.23;1.50;;;4.60;99.90;;;;;;5007666;28;20354;-53
2021/04/14 07:16:37;;;;;;;6.23;1.50;;;4.70;99.90;;;;;;5023626;28;20210;-53
2021/04/14 07:19:11;;;;;;;3.83;1.43;;;4.70;99.90;;;;;;5012285;28;20203;-49
2021/04/14 07:21:40;;;;;;;5.00;1.40;;;4.80;99.90;;;;;;5007599;28;20216;-50
2021/04/14 07:24:23;;;;;;;6.13;1.77;;;4.90;99.90;;;;;;5028646;28;20195;-52
2021/04/14 07:26:55;;;;;;;1.90;1.13;;;5.00;99.90;;;;;;5013417;28;21259;-50
2021/04/14 07:29:28;;;;;;;2.93;1.10;;;5.10;99.90;;;;;;4999200;28;20878;-49
2021/04/14 07:32:02;;;;;;;3.10;1.30;;;5.10;99.90;;;;;;5019063;28;20196;-51
2021/04/14 07:34:40;;;;;;;1.80;1.03;;;5.10;99.90;;;;;;5011256;28;20286;-54
2021/04/14 07:37:10;;;;;;;9.60;1.13;;;5.10;99.90;;;;;;5001792;28;20618;-53
2021/04/14 07:39:44;;;;;;;5.63;1.20;;;5.30;99.90;;;;;;5024261;28;20582;-53
2021/04/14 07:42:23;;;;;;;10.03;1.40;;;5.50;99.90;;;;;;5013984;28;20228;-51
2021/04/14 07:45:04;;;;;;;3.10;1.07;;;5.60;99.90;;;;;;5017416;28;20259;-52
2021/04/14 07:47:33;;;;;;;2.30;0.63;;;5.70;99.90;;;;;;5023705;28;20263;-51
2021/04/14 07:49:59;;;;;;;4.30;0.90;;;5.70;99.90;;;;;;5017316;28;20227;-52
2021/04/14 07:52:29;;;;;;;3.90;0.60;;;5.70;99.90;;;;;;5014277;28;20220;-50
2021/04/14 07:54:56;;;;;;;6.07;1.07;;;5.80;99.90;;;;;;5020693;28;20195;-55
2021/04/14 07:57:28;;;;;;;3.70;1.20;;;5.90;99.90;;;;;;5014023;28;20563;-49
2021/04/14 07:59:55;;;;;;;3.33;1.10;;;5.90;99.90;;;;;;5009892;28;20883;-51
2021/04/14 08:02:32;;;;;;;3.47;0.80;;;5.90;99.90;;;;;;5008685;28;20207;-53
2021/04/14 08:05:13;;;;;;;4.53;1.00;;;5.80;99.90;;;;;;5014939;28;20302;-55
2021/04/14 08:07:41;;;;;;;2.30;1.10;;;5.60;99.90;;;;;;5012683;28;20568;-54
2021/04/14 08:10:11;;;;;;;4.20;0.87;;;5.60;99.90;;;;;;5026691;28;20220;-54
2021/04/14 08:12:40;;;;;;;5.17;1.37;;;5.50;99.90;;;;;;5022816;28;20507;-56
2021/04/14 08:15:09;;;;;;;2.23;0.90;;;5.50;99.90;;;;;;5012089;28;20211;-53
2021/04/14 08:17:36;;;;;;;2.83;1.00;;;5.40;99.90;;;;;;5017475;28;20204;-54
2021/04/14 08:20:12;;;;;;;4.90;1.10;;;5.50;99.90;;;;;;5006773;28;20232;-51
2021/04/14 08:22:38;;;;;;;4.73;1.30;;;5.70;99.90;;;;;;5011321;28;20203;-52
2021/04/14 08:25:06;;;;;;;2.67;0.90;;;5.80;99.90;;;;;;5017288;28;20341;-53
2021/04/14 08:27:38;;;;;;;6.07;1.00;;;5.90;99.90;;;;;;5022115;28;20196;-53
2021/04/14 08:30:11;;;;;;;2.10;0.70;;;5.90;99.90;;;;;;5014510;28;20672;-55
2021/04/14 08:32:40;;;;;;;1.80;0.70;;;5.90;99.90;;;;;;5017404;28;20602;-54
2021/04/14 08:35:13;;;;;;;3.17;0.80;;;5.90;99.90;;;;;;5014307;28;20200;-53
2021/04/14 08:37:40;;;;;;;5.63;0.97;;;6.00;99.90;;;;;;5009942;28;20210;-52
2021/04/14 08:40:17;;;;;;;4.67;1.37;;;6.00;99.90;;;;;;5013961;28;20519;-50
2021/04/14 08:42:44;;;;;;;3.20;0.90;;;6.10;99.90;;;;;;5022044;28;20249;-51
2021/04/14 08:45:19;;;;;;;6.47;1.13;;;6.20;99.90;;;;;;5013128;28;20203;-50
2021/04/14 08:47:51;;;;;;;4.37;0.70;;;6.30;99.90;;;;;;5017078;28;20200;-48
2021/04/14 08:50:25;;;;;;;2.00;0.83;;;6.40;99.90;;;;;;5014493;28;21189;-51
2021/04/14 08:52:55;;;;;;;1.83;0.80;;;6.50;99.90;;;;;;5014824;28;20234;-51
2021/04/14 08:55:24;;;;;;;2.30;0.83;;;6.70;99.90;;;;;;5022587;28;20401;-53
2021/04/14 08:57:51;;;;;;;2.13;0.70;;;6.70;99.90;;;;;;5020793;28;20212;-51
2021/04/14 09:00:19;;;;;;;5.40;1.00;;;6.60;99.90;;;;;;5017207;28;20566;-50
2021/04/14 09:02:47;;;;;;;2.93;0.83;;;6.60;99.90;;;;;;5025088;28;20200;-48
2021/04/14 09:05:17;;;;;;;7.47;1.43;;;6.60;99.90;;;;;;5015221;28;20397;-49
2021/04/14 09:07:44;;;;;;;2.77;1.03;;;6.60;99.90;;;;;;5008101;28;20199;-54
2021/04/14 09:10:29;;;;;;;8.07;1.27;;;6.50;99.90;;;;;;5010545;28;20420;-50
2021/04/14 09:12:56;;;;;;;4.27;1.07;;;6.60;99.90;;;;;;4998741;28;20207;-54
2021/04/14 09:15:23;;;;;;;1.60;0.67;;;6.50;99.90;;;;;;5014490;28;20188;-53
2021/04/14 09:17:57;;;;;;;3.67;1.10;;;6.40;99.90;;;;;;5017545;28;20212;-51
2021/04/14 09:20:26;;;;;;;4.00;1.20;;;6.40;99.90;;;;;;5019635;28;20310;-51
2021/04/14 09:23:06;;;;;;;3.00;0.77;;;6.50;99.90;;;;;;5017501;28;20318;-56
2021/04/14 09:25:40;;;;;;;2.90;1.00;;;6.50;99.90;;;;;;5022060;28;20223;-58
2021/04/14 09:28:07;;;;;;;4.70;1.03;;;6.50;99.90;;;;;;5017612;28;20205;-53
2021/04/14 09:30:40;;;;;;;5.63;0.77;;;6.70;99.90;;;;;;5018260;28;20230;-51
2021/04/14 09:33:20;;;;;;;5.30;0.80;;;7.00;99.90;;;;;;5022510;28;20208;-55
2021/04/14 09:36:03;;;;;;;4.60;0.73;;;7.20;99.90;;;;;;5024454;28;20257;-49
2021/04/14 09:38:34;;;;;;;2.57;0.70;;;7.20;99.90;;;;;;5004048;28;20851;-50
2021/04/14 09:41:32;;;;;;;4.43;1.13;;;7.30;99.90;;;;;;5023250;28;20244;-53
2021/04/14 09:44:11;;;;;;;5.20;0.93;;;7.20;99.90;;;;;;5023051;28;20227;-53
2021/04/14 09:46:40;;;;;;;2.40;1.13;;;7.20;99.90;;;;;;5022093;28;20216;-51
2021/04/14 09:49:12;;;;;;;2.53;1.27;;;7.20;99.90;;;;;;5024809;28;20200;-55
2021/04/14 09:51:40;;;;;;;3.50;0.80;;;7.10;99.90;;;;;;5018748;28;20278;-54
2021/04/14 09:54:09;;;;;;;1.70;1.10;;;6.90;99.90;;;;;;5023986;28;20215;-53
2021/04/14 09:56:36;;;;;;;4.70;1.23;;;6.90;99.90;;;;;;5015175;28;20195;-56
2021/04/14 09:59:08;;;;;;;4.40;0.70;;;6.90;99.90;;;;;;5008753;28;20218;-53
2021/04/14 10:01:37;;;;;;;3.73;1.13;;;7.00;99.90;;;;;;5015805;28;20290;-56
2021/04/14 10:04:06;;;;;;;4.37;0.73;;;7.20;99.90;;;;;;5025858;28;20214;-50
2021/04/14 10:06:35;;;;;;;1.53;0.50;;;7.30;99.90;;;;;;5018391;28;20583;-51
2021/04/14 10:09:04;;;;;;;5.70;1.60;;;7.60;99.90;;;;;;5012166;28;20568;-50
2021/04/14 10:11:33;;;;;;;3.27;1.13;;;7.80;99.90;;;;;;5020811;28;20212;-51
2021/04/14 10:14:08;;;;;;;2.77;0.90;;;8.00;99.90;;;;;;5004051;28;20242;-47
2021/04/14 10:16:34;;;;;;;2.57;0.57;;;8.10;99.90;;;;;;5023449;28;20664;-52
2021/04/14 10:19:03;;;;;;;2.80;0.43;;;8.00;98.50;;;;;;5021306;28;20207;-51
2021/04/14 10:21:31;;;;;;;0.60;0.50;;;8.00;96.90;;;;;;5022168;28;20381;-48
2021/04/14 10:24:02;;;;;;;1.83;0.50;;;7.90;95.70;;;;;;5022882;28;20200;-53
2021/04/14 10:26:30;;;;;;;2.13;0.80;;;8.00;94.80;;;;;;5016891;28;20212;-51
2021/04/14 10:29:00;;;;;;;0.70;0.40;;;8.10;95.10;;;;;;5017511;28;20204;-53
2021/04/14 10:31:26;;;;;;;2.37;0.60;;;8.20;94.30;;;;;;5007158;28;20238;-50
2021/04/14 10:33:53;;;;;;;2.03;0.60;;;8.30;94.60;;;;;;5019735;28;20388;-51
2021/04/14 10:36:24;;;;;;;1.10;0.70;;;8.20;94.90;;;;;;5019886;28;20208;-52
2021/04/14 10:38:51;;;;;;;1.80;0.70;;;8.20;94.90;;;;;;5024546;28;20194;-54
2021/04/14 10:41:22;;;;;;;1.67;0.80;;;8.10;97.40;;;;;;5023392;28;20230;-56
2021/04/14 10:43:49;;;;;;;3.53;1.00;;;8.00;99.60;;;;;;5014734;28;20208;-56
2021/04/14 10:46:19;;;;;;;3.07;1.00;;;7.90;99.90;;;;;;5014585;28;20215;-56
2021/04/14 10:48:49;;;;;;;1.60;0.70;;;7.80;99.90;;;;;;5017101;28;21000;-56
2021/04/14 10:51:21;;;;;;;4.13;1.20;;;7.70;99.90;;;;;;5021325;28;20250;-51
2021/04/14 10:53:50;;;;;;;2.33;0.93;;;7.70;99.90;;;;;;5018184;28;20452;-52
2021/04/14 10:56:20;;;;;;;7.83;1.10;;;7.70;99.90;;;;;;5023068;28;20203;-53
2021/04/14 10:58:46;;;;;;;4.80;1.03;;;7.80;99.90;;;;;;4997497;28;20211;-52
2021/04/14 11:01:16;;;;;;;1.37;0.70;;;7.90;99.90;;;;;;5023345;28;20210;-51
2021/04/14 11:03:44;;;;;;;3.83;1.07;;;8.00;99.90;;;;;;5010535;28;20880;-54
2021/04/14 11:06:12;;;;;;;2.70;0.80;;;8.20;99.90;;;;;;5033183;28;20219;-53
2021/04/14 11:08:41;;;;;;;1.23;0.60;;;8.40;99.90;;;;;;5019049;28;20200;-52
2021/04/14 11:11:08;;;;;;;4.20;0.80;;;8.60;99.90;;;;;;5019831;28;20216;-54
2021/04/14 11:13:40;;;;;;;1.23;0.77;;;8.70;99.40;;;;;;5017588;28;20193;-50
2021/04/14 11:16:10;;;;;;;3.20;1.23;;;8.70;96.60;;;;;;5018067;28;20219;-51
2021/04/14 11:18:39;;;;;;;2.47;0.40;;;8.60;94.40;;;;;;5005394;28;20273;-54
2021/04/14 11:21:20;;;;;;;2.03;0.63;;;8.50;95.20;;;;;;5013248;28;20701;-55
2021/04/14 11:23:46;;;;;;;1.70;0.50;;;8.50;94.20;;;;;;5019276;28;20207;-55
2021/04/14 11:26:15;;;;;;;1.13;0.70;;;8.40;92.00;;;;;;4996224;28;20266;-56
2021/04/14 11:28:45;;;;;;;2.37;0.77;;;8.20;91.90;;;;;;5017521;28;20685;-51
2021/04/14 11:31:13;;;;;;;3.53;0.80;;;8.30;92.70;;;;;;5010662;28;20600;-56
2021/04/14 11:33:42;;;;;;;1.20;0.60;;;8.40;93.50;;;;;;5005430;28;20208;-51
2021/04/14 11:36:31;;;;;;;2.60;0.50;;;8.70;91.70;;;;;;5021266;28;20199;-55
2021/04/14 11:39:04;;;;;;;2.23;0.60;;;8.80;91.20;;;;;;5004663;28;20216;-52
2021/04/14 11:41:32;;;;;;;1.30;0.77;;;8.80;92.90;;;;;;5012151;28;20319;-52
2021/04/14 11:44:01;;;;;;;2.77;0.67;;;9.10;91.50;;;;;;5020826;28;20223;-52
2021/04/14 11:46:31;;;;;;;1.63;1.30;;;9.10;91.70;;;;;;5012010;28;20296;-49
2021/04/14 11:48:59;;;;;;;2.13;0.60;;;8.90;90.00;;;;;;5014958;28;20200;-50
2021/04/14 11:51:31;;;;;;;3.87;0.40;;;8.50;90.50;;;;;;5009376;28;20291;-55
2021/04/14 11:54:00;;;;;;;2.70;0.60;;;8.40;91.90;;;;;;5017688;28;20204;-48
2021/04/14 11:56:35;;;;;;;1.50;0.50;;;8.30;94.30;;;;;;5005765;28;20207;-51
2021/04/14 11:59:03;;;;;;;2.60;0.70;;;8.20;93.30;;;;;;5019181;28;20203;-51
2021/04/14 12:01:33;;;;;;;2.73;0.80;;;8.10;92.80;;;;;;5006813;28;20350;-52
2021/04/14 12:04:10;;;;;;;2.27;0.83;;;8.20;93.20;;;;;;5020343;28;20200;-49
2021/04/14 12:06:36;;;;;;;3.23;0.60;;;8.20;92.30;;;;;;5011432;28;20528;-50
2021/04/14 12:09:02;;;;;;;2.73;0.60;;;8.30;92.60;;;;;;5019961;28;20203;-51
2021/04/14 12:11:29;;;;;;;1.03;0.60;;;8.40;91.30;;;;;;5009311;28;20291;-50
2021/04/14 12:13:55;;;;;;;2.67;0.63;;;8.60;90.80;;;;;;5019303;28;20196;-50
2021/04/14 12:16:22;;;;;;;1.80;0.43;;;8.50;91.60;;;;;;5014714;28;20684;-52
2021/04/14 12:18:48;;;;;;;2.77;0.90;;;8.40;92.20;;;;;;5014368;28;20807;-50
2021/04/14 12:21:14;;;;;;;5.50;1.00;;;8.20;91.90;;;;;;5002904;28;20212;-51
2021/04/14 12:23:41;;;;;;;3.13;0.80;;;8.10;92.50;;;;;;5013331;28;20716;-51
2021/04/14 12:26:07;;;;;;;1.97;0.60;;;8.20;93.10;;;;;;5016831;28;20208;-49
2021/04/14 12:28:34;;;;;;;2.43;0.77;;;8.30;91.90;;;;;;5014339;28;20569;-50
2021/04/14 12:31:00;;;;;;;1.17;0.40;;;8.50;93.40;;;;;;5012994;28;20855;-52
2021/04/14 12:33:27;;;;;;;1.63;0.80;;;8.80;92.50;;;;;;5017418;28;20219;-52
2021/04/14 12:35:53;;;;;;;3.03;0.40;;;9.00;92.20;;;;;;5012589;28;20192;-51
2021/04/14 12:38:19;;;;;;;2.50;0.50;;;9.10;90.80;;;;;;5014336;28;20211;-50
2021/04/14 12:40:45;;;;;;;2.60;0.87;;;9.20;90.60;;;;;;5020706;28;20216;-50
2021/04/14 12:43:11;;;;;;;2.87;0.60;;;9.20;89.30;;;;;;5015163;28;20398;-53
2021/04/14 12:45:42;;;;;;;2.73;0.80;;;9.20;88.30;;;;;;5003804;28;20204;-54
2021/04/14 12:48:11;;;;;;;2.97;0.80;;;9.20;87.70;;;;;;5012209;28;20815;-48
2021/04/14 12:50:38;;;;;;;3.33;0.73;;;9.30;89.00;;;;;;5014392;28;20606;-52
2021/04/14 12:53:06;;;;;;;1.57;0.73;;;9.40;90.50;;;;;;5007495;28;20647;-50
2021/04/14 12:55:39;;;;;;;2.30;0.77;;;9.60;91.20;;;;;;5017571;28;20211;-54
2021/04/14 12:58:09;;;;;;;1.83;0.40;;;9.70;91.20;;;;;;5012259;28;20896;-49
2021/04/14 13:00:35;;;;;;;3.80;0.70;;;9.60;91.80;;;;;;5017797;28;20226;-49
2021/04/14 13:03:06;;;;;;;2.30;0.70;;;9.80;90.40;;;;;;5008652;28;20200;-49